Time;durP1;ratioP1;P1;durP2;ratioP2;P2;SDS_P1;SDS_P2;PMS_P1;PMS_P2;Temp;Humidity;BMP_temperature;BMP_pressure;BME280_temperature;BME280_humidity;BME280_pressure;Samples;Min_cycle;Max_cycle;Signal;HPM_P1;HPM_P2
2023/12/25 00:00:35;;;;;;;0.22;0.10;;;;;;;11.67;100.00;98892.97;4908278;29;20511;-68
2023/12/25 00:03:01;;;;;;;0.38;0.38;;;;;;;11.95;99.03;98894.53;4918160;29;20039;-68
2023/12/25 00:05:26;;;;;;;3.03;0.45;;;;;;;12.13;97.67;98895.03;4916504;29;20039;-68
2023/12/25 00:07:52;;;;;;;0.52;0.25;;;;;;;11.90;99.02;98897.69;4924819;29;20422;-67
2023/12/25 00:10:17;;;;;;;3.60;0.28;;;;;;;12.12;97.30;98898.91;4925614;29;20043;-69
2023/12/25 00:12:43;;;;;;;0.40;0.30;;;;;;;12.00;98.03;98887.91;4925442;29;20106;-68
2023/12/25 00:15:09;;;;;;;4.95;1.17;;;;;;;11.64;99.33;98890.28;4925624;29;20047;-68
2023/12/25 00:17:34;;;;;;;1.60;0.60;;;;;;;11.98;98.43;98882.16;4923533;29;20055;-68
2023/12/25 00:20:00;;;;;;;4.60;0.38;;;;;;;12.20;96.39;98892.22;4924461;29;20044;-69
2023/12/25 00:22:25;;;;;;;0.32;0.30;;;;;;;11.75;97.80;98902.50;4924302;29;20047;-69
2023/12/25 00:24:51;;;;;;;6.18;0.57;;;;;;;12.09;96.65;98898.94;4925056;29;20036;-68
2023/12/25 00:27:16;;;;;;;1.35;0.43;;;;;;;12.15;96.18;98898.09;4924382;29;20131;-69
2023/12/25 00:29:41;;;;;;;0.32;0.32;;;;;;;11.75;97.33;98891.69;4918286;29;20127;-68
2023/12/25 00:32:07;;;;;;;0.15;0.15;;;;;;;11.65;98.22;98902.63;4923432;29;20035;-68
2023/12/25 00:34:32;;;;;;;0.25;0.25;;;;;;;11.60;98.15;98890.34;4916338;29;20051;-68
2023/12/25 00:36:58;;;;;;;3.30;0.52;;;;;;;11.95;96.89;98881.03;4923615;29;20047;-68
2023/12/25 00:39:23;;;;;;;1.23;0.70;;;;;;;12.07;96.23;98890.50;4925093;29;20130;-69
2023/12/25 00:41:49;;;;;;;0.77;0.25;;;;;;;12.00;94.81;98879.81;4925617;29;20540;-67
2023/12/25 00:44:14;;;;;;;0.20;0.20;;;;;;;12.16;94.98;98888.81;4915215;29;20028;-68
2023/12/25 00:46:40;;;;;;;0.90;0.40;;;;;;;11.96;95.56;98885.28;4958257;28;20415;-68
2023/12/25 00:49:05;;;;;;;0.40;0.20;;;;;;;12.05;95.19;98901.72;4929688;29;20035;-68
2023/12/25 00:51:31;;;;;;;0.45;0.30;;;;;;;11.95;95.39;98893.75;4930197;29;20035;-68
2023/12/25 00:53:56;;;;;;;0.70;0.30;;;;;;;11.78;96.22;98892.84;4932152;29;20032;-68
2023/12/25 00:56:22;;;;;;;0.32;0.20;;;;;;;12.09;94.46;98910.50;4933706;29;20527;-68
2023/12/25 00:58:47;;;;;;;0.30;0.30;;;;;;;12.04;94.66;98896.72;4930345;29;20043;-68
2023/12/25 01:01:13;;;;;;;0.45;0.38;;;;;;;11.93;94.75;98896.09;4930242;29;20036;-68
2023/12/25 01:03:38;;;;;;;0.20;0.20;;;;;;;12.18;94.36;98904.59;4911891;29;20027;-68
2023/12/25 01:06:04;;;;;;;2.40;0.60;;;;;;;12.06;94.31;98919.41;4927797;29;20031;-68
2023/12/25 01:08:29;;;;;;;0.20;0.20;;;;;;;11.77;96.29;98924.44;4931857;29;20039;-69
2023/12/25 01:10:56;;;;;;;2.03;0.50;;;;;;;11.75;95.88;98926.00;4933733;29;20513;-68
2023/12/25 01:13:21;;;;;;;1.45;0.38;;;;;;;11.94;95.02;98922.69;4931828;29;20058;-69
2023/12/25 01:15:47;;;;;;;0.50;0.38;;;;;;;12.06;94.44;98938.28;4929060;29;20122;-68
2023/12/25 01:18:12;;;;;;;0.75;0.30;;;;;;;11.69;95.47;98919.53;4913923;29;20047;-68
2023/12/25 01:20:38;;;;;;;0.45;0.32;;;;;;;11.85;94.76;98927.03;4931493;29;20032;-68
2023/12/25 01:23:03;;;;;;;1.70;0.70;;;;;;;12.10;95.23;98922.06;4911296;29;20618;-69
2023/12/25 01:25:29;;;;;;;6.55;0.30;;;;;;;11.95;95.05;98937.69;4929199;29;20463;-69
2023/12/25 01:27:54;;;;;;;0.70;0.32;;;;;;;12.00;94.05;98907.53;4957377;28;20435;-69
2023/12/25 01:30:20;;;;;;;0.20;0.20;;;;;;;12.27;93.32;98921.78;4930051;29;20854;-69
2023/12/25 01:32:45;;;;;;;0.28;0.28;;;;;;;11.98;94.97;98938.81;4932766;29;20118;-68
2023/12/25 01:35:10;;;;;;;1.58;0.38;;;;;;;12.42;92.62;98925.06;4934449;29;20035;-69
2023/12/25 01:37:36;;;;;;;0.10;0.10;;;;;;;12.31;93.70;98933.31;4917594;29;20162;-69
2023/12/25 01:40:01;;;;;;;3.47;0.40;;;;;;;12.18;93.46;98929.66;4931911;29;20035;-69
2023/12/25 01:42:27;;;;;;;1.10;0.22;;;;;;;12.20;93.91;98931.94;4931299;29;20024;-69
2023/12/25 01:44:53;;;;;;;4.82;0.98;;;;;;;11.80;95.51;98936.34;4929449;29;20032;-69
2023/12/25 01:47:19;;;;;;;2.45;0.20;;;;;;;12.02;95.16;98921.38;4928146;29;20036;-69
2023/12/25 01:49:45;;;;;;;1.55;0.32;;;;;;;11.96;95.98;98928.44;4946262;29;20063;-69
2023/12/25 01:52:12;;;;;;;2.08;0.43;;;;;;;11.93;95.47;98931.16;4934926;29;20412;-68
2023/12/25 01:54:38;;;;;;;0.50;0.22;;;;;;;12.31;93.63;98944.09;4931189;29;20115;-69
2023/12/25 01:57:04;;;;;;;0.70;0.45;;;;;;;12.06;93.72;98938.28;4930865;29;20040;-69
2023/12/25 01:59:30;;;;;;;3.05;0.30;;;;;;;12.17;93.81;98943.56;4947137;29;20042;-68
2023/12/25 02:01:59;;;;;;;1.08;0.55;;;;;;;12.28;93.84;98939.53;4928498;29;20403;-69
2023/12/25 02:04:26;;;;;;;0.10;0.10;;;;;;;12.14;92.53;98939.72;4961203;28;20515;-69
2023/12/25 02:06:53;;;;;;;0.70;0.20;;;;;;;12.28;93.11;98944.94;4928356;29;20041;-68
2023/12/25 02:09:18;;;;;;;3.25;0.63;;;;;;;11.85;94.74;98943.97;4930710;29;20036;-69
2023/12/25 02:11:44;;;;;;;1.17;0.35;;;;;;;11.77;95.81;98953.31;4933568;29;20023;-69
2023/12/25 02:14:11;;;;;;;1.27;0.30;;;;;;;11.96;94.22;98949.25;4915022;29;20516;-68
2023/12/25 02:16:39;;;;;;;0.25;0.25;;;;;;;11.94;94.67;98957.75;4914784;29;20039;-69
2023/12/25 02:19:40;;;;;;;2.72;0.43;;;;;;;12.11;95.11;98953.28;4929763;29;20047;-68
2023/12/25 02:22:07;;;;;;;0.93;0.32;;;;;;;12.02;93.34;98975.34;4928072;29;20498;-69
2023/12/25 02:24:36;;;;;;;0.50;0.50;;;;;;;11.95;94.95;98963.88;4930517;29;20108;-68
2023/12/25 02:27:02;;;;;;;0.93;0.47;;;;;;;12.06;93.93;98978.03;4945999;29;20039;-68
2023/12/25 02:29:27;;;;;;;2.25;0.85;;;;;;;12.32;93.28;98966.47;4931581;29;20083;-69
2023/12/25 02:31:53;;;;;;;5.20;0.75;;;;;;;12.19;92.60;98966.28;4928508;29;20546;-68
2023/12/25 02:34:18;;;;;;;0.77;0.30;;;;;;;12.30;91.42;98963.41;4917280;29;20122;-68
2023/12/25 02:36:44;;;;;;;0.85;0.50;;;;;;;11.86;93.24;98950.91;4914188;29;20036;-68
2023/12/25 02:39:09;;;;;;;1.70;0.60;;;;;;;12.07;92.23;98944.47;4928713;29;20031;-68
2023/12/25 02:41:35;;;;;;;8.07;0.55;;;;;;;12.44;91.33;98957.81;4931326;29;20042;-68
2023/12/25 02:44:01;;;;;;;0.70;0.50;;;;;;;12.08;92.28;98944.06;4931415;29;20042;-68
2023/12/25 02:46:27;;;;;;;0.35;0.35;;;;;;;12.02;91.60;98967.25;4931790;29;20503;-68
2023/12/25 02:48:52;;;;;;;0.73;0.30;;;;;;;12.22;91.80;98968.16;4925633;29;20058;-68
2023/12/25 02:51:18;;;;;;;2.25;0.55;;;;;;;12.06;92.10;98964.53;4931627;29;20031;-68
2023/12/25 02:53:43;;;;;;;1.30;0.30;;;;;;;11.97;92.35;98964.25;4928754;29;20414;-68
2023/12/25 02:56:09;;;;;;;1.05;0.40;;;;;;;11.85;92.48;98968.25;4928374;29;20122;-68
2023/12/25 02:58:36;;;;;;;5.43;0.98;;;;;;;11.90;92.94;98972.44;4928496;29;20032;-68
2023/12/25 03:01:01;;;;;;;0.25;0.25;;;;;;;12.41;90.18;98980.97;4946272;29;20031;-68
2023/12/25 03:03:26;;;;;;;2.22;0.50;;;;;;;12.44;89.32;98974.78;4928308;29;20969;-68
2023/12/25 03:05:52;;;;;;;0.60;0.47;;;;;;;12.43;88.45;98978.63;4929380;29;20036;-68
2023/12/25 03:08:17;;;;;;;1.67;0.32;;;;;;;12.23;89.48;98972.34;4914039;29;20075;-68
2023/12/25 03:10:43;;;;;;;3.75;0.50;;;;;;;11.90;89.65;98964.34;4930303;29;20083;-68
2023/12/25 03:13:08;;;;;;;3.65;0.45;;;;;;;11.95;89.25;98961.19;4928655;29;20031;-68
2023/12/25 03:15:35;;;;;;;0.75;0.40;;;;;;;12.33;88.06;98965.31;4929131;29;20605;-68
2023/12/25 03:18:00;;;;;;;1.02;0.52;;;;;;;12.26;88.08;98976.19;4927380;29;20064;-68
2023/12/25 03:20:25;;;;;;;3.58;0.60;;;;;;;11.99;88.14;98976.16;4929461;29;20035;-68
2023/12/25 03:22:51;;;;;;;0.20;0.20;;;;;;;11.98;89.18;98985.41;4912492;29;20038;-68
2023/12/25 03:25:16;;;;;;;0.95;0.70;;;;;;;12.06;88.85;98989.56;4928833;29;20047;-67
2023/12/25 03:27:42;;;;;;;4.32;0.68;;;;;;;12.05;88.07;98993.44;4927856;29;20110;-68
2023/12/25 03:30:07;;;;;;;1.45;0.35;;;;;;;12.13;87.48;98978.69;4928193;29;20048;-68
2023/12/25 03:32:34;;;;;;;0.60;0.25;;;;;;;12.02;89.19;98991.53;4928355;29;20040;-68
2023/12/25 03:34:59;;;;;;;0.40;0.20;;;;;;;11.99;87.71;98995.06;4929078;29;20035;-68
2023/12/25 03:37:25;;;;;;;1.60;0.57;;;;;;;12.08;87.53;99000.72;4927406;29;20070;-68
2023/12/25 03:39:51;;;;;;;0.10;0.10;;;;;;;11.95;88.22;99013.22;4927998;29;20657;-69
2023/12/25 03:42:17;;;;;;;7.15;1.52;;;;;;;11.67;88.13;98997.38;4928935;29;20032;-68
2023/12/25 03:44:42;;;;;;;1.42;0.28;;;;;;;11.69;88.48;98992.34;4927374;29;20090;-68
2023/12/25 03:47:08;;;;;;;0.43;0.17;;;;;;;11.98;87.88;98990.81;4930321;29;20044;-68
2023/12/25 03:49:33;;;;;;;4.03;0.55;;;;;;;11.74;87.67;98992.66;4926684;29;20540;-68
2023/12/25 03:51:59;;;;;;;2.65;0.60;;;;;;;11.70;88.07;98991.94;4921885;29;20410;-68
2023/12/25 03:54:24;;;;;;;1.17;0.40;;;;;;;11.84;87.44;98984.84;4926589;29;20511;-68
2023/12/25 03:56:50;;;;;;;2.15;0.50;;;;;;;11.96;86.95;98981.63;4929577;29;20138;-68
2023/12/25 03:59:15;;;;;;;0.10;0.10;;;;;;;11.72;88.35;98988.84;4924324;29;20055;-68
2023/12/25 04:01:42;;;;;;;0.22;0.22;;;;;;;11.97;87.46;99004.72;4908007;29;20425;-68
2023/12/25 04:04:07;;;;;;;1.23;0.47;;;;;;;11.81;87.38;98991.81;4916612;29;20039;-68
2023/12/25 04:06:33;;;;;;;1.20;0.22;;;;;;;11.75;88.49;98993.41;4918129;29;20495;-68
2023/12/25 04:08:58;;;;;;;7.47;0.80;;;;;;;11.74;88.31;99006.16;4931187;29;20075;-68
2023/12/25 04:11:24;;;;;;;4.80;1.83;;;;;;;11.99;87.68;98999.69;4923778;29;20106;-68
2023/12/25 04:13:53;;;;;;;1.00;0.55;;;;;;;11.98;85.82;99001.59;4919353;29;20115;-68
2023/12/25 04:16:23;;;;;;;0.38;0.20;;;;;;;11.95;86.79;98997.03;4918920;29;20485;-68
2023/12/25 04:18:49;;;;;;;1.45;0.28;;;;;;;12.26;84.83;99008.56;4922662;29;20035;-68
2023/12/25 04:21:25;;;;;;;9.55;0.70;;;;;;;11.78;86.59;99004.19;4920319;29;20688;-68
2023/12/25 04:23:52;;;;;;;1.77;0.80;;;;;;;11.94;85.96;99002.84;4928709;29;20050;-68
2023/12/25 04:26:19;;;;;;;2.03;0.30;;;;;;;11.94;86.04;99017.09;4944154;28;20032;-69
2023/12/25 04:28:45;;;;;;;2.72;0.10;;;;;;;12.10;85.98;99030.00;4927168;29;20071;-68
2023/12/25 04:31:10;;;;;;;1.17;0.38;;;;;;;12.18;85.36;99017.94;4921700;29;20709;-68
2023/12/25 04:33:36;;;;;;;0.32;0.30;;;;;;;12.14;85.13;99007.19;4930743;29;20136;-68
2023/12/25 04:36:01;;;;;;;2.13;0.30;;;;;;;11.92;85.47;99018.66;4922888;29;20032;-68
2023/12/25 04:38:29;;;;;;;0.55;0.38;;;;;;;11.90;85.71;99023.69;4925005;29;20415;-68
2023/12/25 04:40:56;;;;;;;1.30;0.77;;;;;;;11.85;86.16;99037.59;4926019;29;20110;-68
2023/12/25 04:43:21;;;;;;;1.10;0.40;;;;;;;11.97;84.92;99040.56;4927613;29;20155;-68
2023/12/25 04:45:47;;;;;;;4.88;0.52;;;;;;;11.51;86.52;99034.88;4932712;29;20387;-69
2023/12/25 04:48:12;;;;;;;2.83;0.60;;;;;;;11.64;86.33;99028.56;4931482;29;20043;-69
2023/12/25 04:50:39;;;;;;;0.40;0.17;;;;;;;11.84;85.63;99026.06;4918166;29;20032;-68
2023/12/25 04:53:05;;;;;;;0.70;0.10;;;;;;;11.81;85.23;99040.34;4921593;29;20526;-69
2023/12/25 04:55:32;;;;;;;1.63;0.50;;;;;;;11.79;84.72;99053.47;4930604;29;20036;-68
2023/12/25 04:57:59;;;;;;;6.03;0.47;;;;;;;11.98;84.28;99042.06;4948768;29;20040;-68
2023/12/25 05:00:24;;;;;;;0.77;0.30;;;;;;;11.95;83.62;99061.00;4934227;29;20051;-69
2023/12/25 05:02:50;;;;;;;1.63;0.35;;;;;;;11.70;84.53;99045.09;4932337;29;20042;-69
2023/12/25 05:05:15;;;;;;;2.80;0.50;;;;;;;11.66;83.53;99034.34;4930825;29;20023;-69
2023/12/25 05:07:41;;;;;;;4.50;0.52;;;;;;;11.49;85.48;99062.22;4931809;29;20032;-69
2023/12/25 05:10:08;;;;;;;3.30;0.50;;;;;;;11.87;83.48;99060.31;4932030;29;20055;-68
2023/12/25 05:12:34;;;;;;;0.45;0.30;;;;;;;11.76;83.84;99054.28;4931989;29;20027;-69
2023/12/25 05:14:59;;;;;;;2.50;0.52;;;;;;;11.76;82.95;99054.28;4950325;29;20407;-69
2023/12/25 05:17:25;;;;;;;5.30;0.77;;;;;;;11.41;83.06;99049.97;4937776;29;20404;-69
2023/12/25 05:19:51;;;;;;;6.47;1.00;;;;;;;11.46;83.41;99068.41;4932227;29;20035;-69
2023/12/25 05:22:16;;;;;;;2.72;0.75;;;;;;;11.45;83.04;99060.72;4919949;29;20039;-69
2023/12/25 05:24:43;;;;;;;2.20;0.47;;;;;;;11.51;82.69;99064.53;4944123;28;20079;-68
2023/12/25 05:27:08;;;;;;;2.28;0.43;;;;;;;11.22;83.76;99061.31;4925439;29;20237;-69
2023/12/25 05:29:34;;;;;;;6.32;0.88;;;;;;;11.17;83.84;99063.69;4931011;29;20496;-68
2023/12/25 05:32:00;;;;;;;3.30;0.30;;;;;;;11.39;82.93;99070.41;4934320;29;20102;-69
2023/12/25 05:34:27;;;;;;;1.20;0.30;;;;;;;11.63;82.49;99059.38;4959218;28;20466;-69
2023/12/25 05:36:53;;;;;;;1.23;0.30;;;;;;;11.67;81.61;99062.09;4932550;29;20482;-68
2023/12/25 05:39:18;;;;;;;1.50;0.60;;;;;;;11.35;83.67;99073.13;4932080;29;20095;-69
2023/12/25 05:41:44;;;;;;;4.00;1.02;;;;;;;11.39;82.78;99068.47;4929698;29;20496;-69
2023/12/25 05:44:09;;;;;;;5.00;0.60;;;;;;;11.24;84.61;99069.78;4931958;29;20023;-69
2023/12/25 05:46:36;;;;;;;1.75;0.47;;;;;;;11.35;84.81;99089.31;4928709;29;20059;-69
2023/12/25 05:49:01;;;;;;;11.52;1.27;;;;;;;11.45;83.75;99087.69;4916180;29;20079;-69
2023/12/25 05:51:27;;;;;;;2.67;1.10;;;;;;;11.35;83.18;99083.16;4934630;29;20039;-69
2023/12/25 05:53:52;;;;;;;1.02;0.85;;;;;;;11.43;83.09;99100.78;4927867;29;20039;-69
2023/12/25 05:56:20;;;;;;;2.92;0.90;;;;;;;11.35;83.51;99099.31;4933461;29;20036;-69
2023/12/25 05:58:45;;;;;;;1.00;0.55;;;;;;;11.78;80.49;99109.38;4933552;29;20038;-68
2023/12/25 06:01:12;;;;;;;5.65;0.57;;;;;;;11.73;80.11;99099.00;4928337;29;20046;-69
2023/12/25 06:03:41;;;;;;;2.00;0.40;;;;;;;11.09;82.52;99116.81;4925066;29;20030;-69
2023/12/25 06:06:07;;;;;;;1.50;0.55;;;;;;;11.22;83.20;99100.97;4938212;29;20039;-69
2023/12/25 06:08:33;;;;;;;1.13;0.50;;;;;;;11.48;82.46;99103.03;4934808;29;20035;-69
2023/12/25 06:10:59;;;;;;;2.42;0.30;;;;;;;11.34;83.55;99113.97;4933578;29;20055;-69
2023/12/25 06:13:24;;;;;;;1.67;0.65;;;;;;;11.32;83.86;99121.69;4934155;29;20084;-69
2023/12/25 06:15:50;;;;;;;0.88;0.20;;;;;;;11.36;83.36;99127.81;4934544;29;20035;-69
2023/12/25 06:18:15;;;;;;;1.27;0.30;;;;;;;11.60;83.18;99116.03;4927334;29;20392;-68
2023/12/25 06:20:41;;;;;;;4.18;0.32;;;;;;;11.19;85.65;99134.84;4929188;29;20046;-69
2023/12/25 06:23:06;;;;;;;2.17;0.30;;;;;;;11.17;85.73;99136.44;4928769;29;20019;-69
2023/12/25 06:25:31;;;;;;;1.48;0.68;;;;;;;11.04;85.96;99127.25;4931963;29;20557;-69
2023/12/25 06:27:57;;;;;;;1.33;0.45;;;;;;;11.38;83.91;99136.28;4934432;29;20044;-68
2023/12/25 06:30:22;;;;;;;1.55;0.40;;;;;;;11.36;83.54;99138.59;4930107;29;20056;-69
2023/12/25 06:32:48;;;;;;;5.53;0.98;;;;;;;11.14;83.31;99146.06;4930610;28;20387;-69
2023/12/25 06:35:13;;;;;;;3.58;0.63;;;;;;;10.86;84.63;99154.28;4932262;29;20047;-68
2023/12/25 06:37:38;;;;;;;2.38;1.02;;;;;;;10.74;84.71;99165.53;4931713;29;20128;-69
2023/12/25 06:40:05;;;;;;;2.15;0.55;;;;;;;10.95;83.09;99167.34;4929726;29;20174;-68
2023/12/25 06:42:31;;;;;;;0.47;0.43;;;;;;;10.86;83.72;99165.84;4928353;29;20051;-69
2023/12/25 06:44:56;;;;;;;2.60;0.75;;;;;;;10.95;83.93;99165.41;4914165;29;20079;-68
2023/12/25 06:47:21;;;;;;;4.82;0.88;;;;;;;10.85;84.69;99164.31;4926882;29;20028;-68
2023/12/25 06:49:47;;;;;;;12.00;1.88;;;;;;;10.85;85.41;99174.31;4922234;29;20103;-68
2023/12/25 06:52:12;;;;;;;4.13;1.25;;;;;;;11.19;84.33;99166.44;4928864;29;20027;-68
2023/12/25 06:54:38;;;;;;;3.45;1.23;;;;;;;10.94;85.34;99173.91;4929011;29;20036;-69
2023/12/25 06:57:05;;;;;;;5.80;0.38;;;;;;;10.99;84.88;99162.69;4931132;29;20032;-69
2023/12/25 06:59:30;;;;;;;0.93;0.57;;;;;;;10.98;85.50;99164.63;4935133;29;20395;-68
2023/12/25 07:01:55;;;;;;;6.65;0.60;;;;;;;11.00;85.28;99180.38;4928655;29;20047;-68
2023/12/25 07:04:22;;;;;;;4.95;1.00;;;;;;;10.86;86.13;99186.59;4929925;29;20044;-69
2023/12/25 07:06:48;;;;;;;5.85;0.70;;;;;;;10.75;86.17;99177.81;4926843;29;20031;-68
2023/12/25 07:09:14;;;;;;;1.75;0.75;;;;;;;11.16;85.55;99186.84;4926547;29;20045;-69
2023/12/25 07:11:41;;;;;;;7.10;2.13;;;;;;;10.92;86.04;99189.69;4927611;29;20076;-68
2023/12/25 07:14:08;;;;;;;7.60;0.90;;;;;;;10.94;86.06;99198.13;4931718;29;20032;-69
2023/12/25 07:16:33;;;;;;;1.75;0.63;;;;;;;10.80;87.55;99193.59;4924955;29;20408;-68
2023/12/25 07:18:58;;;;;;;5.57;0.70;;;;;;;10.91;86.99;99199.69;4933243;29;20058;-69
2023/12/25 07:21:24;;;;;;;2.50;0.50;;;;;;;11.07;86.76;99212.69;4923316;29;20039;-69
2023/12/25 07:23:49;;;;;;;2.50;0.90;;;;;;;10.90;87.28;99214.28;4928195;29;20368;-69
2023/12/25 07:26:18;;;;;;;1.90;0.63;;;;;;;10.93;86.26;99221.59;4932169;29;20043;-69
2023/12/25 07:28:44;;;;;;;6.70;1.10;;;;;;;11.02;86.29;99213.84;4913444;29;20031;-68
2023/12/25 07:31:10;;;;;;;3.38;0.68;;;;;;;11.11;85.12;99235.72;4928634;29;20122;-68
2023/12/25 07:33:36;;;;;;;1.48;0.38;;;;;;;11.23;84.50;99231.81;4932237;29;20504;-68
2023/12/25 07:36:04;;;;;;;5.00;1.08;;;;;;;10.99;85.13;99241.59;4931565;29;20428;-69
2023/12/25 07:38:30;;;;;;;6.78;1.17;;;;;;;10.94;86.62;99231.19;4929940;29;20118;-68
2023/12/25 07:40:57;;;;;;;1.98;0.47;;;;;;;10.80;85.95;99233.97;4931645;29;20924;-68
2023/12/25 07:43:22;;;;;;;1.08;0.50;;;;;;;10.93;86.24;99245.06;4927768;29;20110;-68
2023/12/25 07:45:48;;;;;;;3.92;1.20;;;;;;;10.59;87.63;99261.72;4928421;29;20071;-68
2023/12/25 07:48:13;;;;;;;1.98;0.50;;;;;;;10.96;86.26;99252.34;4928198;29;20047;-69
2023/12/25 07:50:39;;;;;;;3.10;0.50;;;;;;;11.05;84.59;99264.28;4931713;29;20047;-69
2023/12/25 07:53:04;;;;;;;0.85;0.32;;;;;;;11.19;83.89;99285.00;4931033;29;20030;-68
2023/12/25 07:55:30;;;;;;;6.78;0.80;;;;;;;11.00;84.79;99288.91;4926711;29;20179;-68
2023/12/25 07:57:56;;;;;;;2.67;1.80;;;;;;;10.62;87.04;99277.13;4932985;29;20032;-69
2023/12/25 08:00:22;;;;;;;1.40;0.50;;;;;;;10.68;86.29;99290.94;4927810;29;20040;-68
2023/12/25 08:02:47;;;;;;;3.13;0.70;;;;;;;10.41;86.99;99290.63;4927918;29;20028;-68
2023/12/25 08:05:12;;;;;;;3.20;1.52;;;;;;;10.42;87.70;99297.53;4923891;29;20092;-68
2023/12/25 08:07:38;;;;;;;3.03;0.77;;;;;;;10.39;87.65;99311.75;4926331;29;20036;-68
2023/12/25 08:10:03;;;;;;;4.15;0.93;;;;;;;10.66;86.49;99312.09;4916781;29;20068;-69
2023/12/25 08:12:29;;;;;;;0.95;0.45;;;;;;;10.76;86.67;99309.38;4946609;29;20044;-69
2023/12/25 08:14:55;;;;;;;3.35;0.88;;;;;;;10.94;84.68;99312.00;4929478;29;20028;-69
2023/12/25 08:17:20;;;;;;;1.95;1.02;;;;;;;10.42;86.01;99308.28;4929768;29;20038;-69
2023/12/25 08:19:46;;;;;;;10.07;0.93;;;;;;;10.78;84.72;99312.44;4927575;29;20645;-69
2023/12/25 08:22:11;;;;;;;3.30;0.82;;;;;;;10.67;84.16;99319.00;4960292;28;20085;-68
2023/12/25 08:24:37;;;;;;;7.10;1.75;;;;;;;10.52;84.86;99326.34;4932316;29;20359;-68
2023/12/25 08:27:03;;;;;;;5.63;0.88;;;;;;;10.72;83.52;99324.00;4927964;29;20036;-68
2023/12/25 08:29:28;;;;;;;7.20;0.70;;;;;;;10.47;85.05;99315.94;4937748;29;20120;-70
2023/12/25 08:31:55;;;;;;;4.13;0.80;;;;;;;10.86;82.46;99335.50;4931701;29;20119;-69
2023/12/25 08:34:23;;;;;;;7.38;0.75;;;;;;;10.48;83.46;99338.25;4923950;29;20525;-69
2023/12/25 08:36:49;;;;;;;5.47;1.00;;;;;;;10.37;83.72;99340.19;4926951;29;20140;-68
2023/12/25 08:39:16;;;;;;;9.02;0.85;;;;;;;10.17;84.67;99347.09;4929055;29;20110;-68
2023/12/25 08:41:41;;;;;;;3.67;0.32;;;;;;;10.32;83.90;99349.41;4962171;28;20058;-69
2023/12/25 08:44:07;;;;;;;4.93;0.38;;;;;;;10.38;83.72;99363.25;4929571;29;20513;-69
2023/12/25 08:46:32;;;;;;;4.28;0.82;;;;;;;10.39;83.65;99356.72;4931331;29;20032;-68
2023/12/25 08:48:58;;;;;;;2.22;0.95;;;;;;;10.65;82.27;99359.00;4929656;29;20415;-69
2023/12/25 08:51:23;;;;;;;6.38;1.10;;;;;;;10.65;82.37;99359.78;4928060;29;20044;-69
2023/12/25 08:53:49;;;;;;;2.78;0.50;;;;;;;10.61;82.47;99361.69;4929356;29;20043;-69
2023/12/25 08:56:25;;;;;;;0.13;0.13;;;;;;;10.58;83.64;99361.72;4931522;29;20035;-69
2023/12/25 08:58:51;;;;;;;6.35;1.08;;;;;;;10.62;83.54;99352.50;4928402;29;20047;-68
2023/12/25 09:01:17;;;;;;;5.20;0.82;;;;;;;10.14;86.29;99378.25;4929745;29;20431;-69
2023/12/25 09:03:42;;;;;;;1.30;0.47;;;;;;;10.51;85.58;99370.56;4913962;29;20463;-68
2023/12/25 09:06:07;;;;;;;7.65;0.93;;;;;;;10.78;84.56;99382.44;4930560;29;20079;-69
2023/12/25 09:08:33;;;;;;;3.08;0.63;;;;;;;10.64;84.72;99374.41;4935768;29;20080;-69
2023/12/25 09:10:59;;;;;;;1.98;0.93;;;;;;;10.72;84.20;99388.63;4934669;29;20027;-69
2023/12/25 09:13:24;;;;;;;1.58;0.60;;;;;;;10.42;84.14;99389.00;4936137;29;20039;-69
2023/12/25 09:15:50;;;;;;;2.10;0.50;;;;;;;10.45;83.86;99404.38;4931179;29;20036;-69
2023/12/25 09:18:16;;;;;;;4.85;1.08;;;;;;;10.64;83.32;99414.78;4935419;29;20115;-69
2023/12/25 09:20:41;;;;;;;0.28;0.25;;;;;;;10.60;82.67;99403.25;4935591;29;20019;-69
2023/12/25 09:23:06;;;;;;;2.20;0.88;;;;;;;10.51;83.04;99400.16;4932313;29;20027;-68
2023/12/25 09:25:32;;;;;;;5.68;1.17;;;;;;;10.33;83.23;99417.47;4933747;29;20070;-69
2023/12/25 09:27:57;;;;;;;4.82;0.90;;;;;;;10.33;84.61;99409.38;4934777;29;20032;-68
2023/12/25 09:30:23;;;;;;;8.77;1.30;;;;;;;10.50;83.82;99412.09;4931833;29;20084;-68
2023/12/25 09:32:49;;;;;;;3.65;0.82;;;;;;;10.18;84.76;99422.03;4933694;29;20483;-68
2023/12/25 09:35:15;;;;;;;7.13;1.02;;;;;;;10.58;84.76;99423.63;4920087;29;20826;-69
2023/12/25 09:37:41;;;;;;;8.35;1.33;;;;;;;10.83;82.77;99429.78;4932395;29;20420;-69
2023/12/25 09:40:07;;;;;;;3.47;0.98;;;;;;;10.92;82.80;99437.47;4930531;29;20043;-68
2023/12/25 09:42:33;;;;;;;6.97;0.68;;;;;;;11.12;82.49;99425.88;4929818;29;20538;-68
2023/12/25 09:44:58;;;;;;;3.10;1.02;;;;;;;10.98;82.65;99428.59;4932407;29;20036;-68
2023/12/25 09:47:25;;;;;;;4.88;0.90;;;;;;;10.55;84.43;99422.47;4933146;29;20043;-69
2023/12/25 09:49:51;;;;;;;2.45;0.77;;;;;;;10.76;84.02;99430.53;4927282;29;20039;-69
2023/12/25 09:52:17;;;;;;;2.90;0.65;;;;;;;10.94;83.61;99427.06;4935128;28;20411;-68
2023/12/25 09:54:44;;;;;;;6.65;0.95;;;;;;;10.98;84.64;99427.81;4933679;29;20398;-68
2023/12/25 09:57:12;;;;;;;2.15;0.50;;;;;;;11.08;83.80;99435.13;4930274;29;20743;-68
2023/12/25 09:59:39;;;;;;;2.85;1.00;;;;;;;11.13;83.09;99437.44;4928271;29;20388;-68
2023/12/25 10:02:06;;;;;;;2.50;0.65;;;;;;;10.81;85.11;99445.53;4930910;29;20051;-68
2023/12/25 10:04:36;;;;;;;2.33;0.70;;;;;;;10.83;84.89;99446.69;4930080;29;20031;-69
2023/12/25 10:07:02;;;;;;;4.65;0.93;;;;;;;11.05;83.14;99449.38;4930120;29;20388;-68
2023/12/25 10:09:30;;;;;;;5.22;1.35;;;;;;;10.82;84.15;99453.22;4931825;29;20047;-69
2023/12/25 10:11:55;;;;;;;2.03;0.40;;;;;;;10.53;85.13;99459.75;4958612;28;20027;-68
2023/12/25 10:14:21;;;;;;;2.63;0.60;;;;;;;10.52;85.75;99452.06;4934611;29;20122;-69
2023/12/25 10:16:46;;;;;;;4.97;0.38;;;;;;;10.52;85.54;99458.22;4927278;29;20063;-68
2023/12/25 10:19:12;;;;;;;3.00;0.40;;;;;;;10.15;86.51;99451.63;4930599;29;20038;-69
2023/12/25 10:21:44;;;;;;;7.22;0.75;;;;;;;10.04;88.18;99459.66;4931972;29;20062;-69
2023/12/25 10:24:14;;;;;;;2.80;0.80;;;;;;;10.37;86.16;99470.13;4932843;29;20118;-68
2023/12/25 10:26:40;;;;;;;2.35;0.65;;;;;;;10.50;85.81;99457.84;4929841;29;20035;-68
2023/12/25 10:29:08;;;;;;;2.63;1.50;;;;;;;10.41;85.69;99470.91;4928589;29;20059;-69
2023/12/25 10:31:35;;;;;;;0.40;0.40;;;;;;;10.42;85.08;99472.44;4929840;29;20091;-68
2023/12/25 10:34:01;;;;;;;7.80;0.73;;;;;;;10.29;84.96;99470.50;4929498;29;20024;-69
2023/12/25 10:36:26;;;;;;;3.30;1.10;;;;;;;10.36;84.04;99467.81;4928895;29;20491;-69
2023/12/25 10:38:52;;;;;;;2.80;1.15;;;;;;;10.20;85.17;99462.03;4929447;29;20415;-68
2023/12/25 10:41:29;;;;;;;8.80;0.55;;;;;;;10.36;84.21;99473.97;4929787;29;20158;-68
2023/12/25 10:43:57;;;;;;;9.10;1.05;;;;;;;10.73;82.59;99469.00;4918010;29;20047;-68
2023/12/25 10:46:24;;;;;;;2.97;0.73;;;;;;;10.56;82.60;99471.69;4929083;29;20114;-69
2023/12/25 10:48:55;;;;;;;4.32;1.83;;;;;;;10.57;83.24;99476.69;4928560;29;20028;-69
2023/12/25 10:51:21;;;;;;;6.47;0.98;;;;;;;10.48;82.96;99475.53;4924842;29;20475;-68
2023/12/25 10:53:48;;;;;;;5.82;1.10;;;;;;;10.55;83.06;99484.38;4927544;29;20118;-69
2023/12/25 10:56:14;;;;;;;3.15;0.93;;;;;;;10.59;82.69;99479.00;4933951;29;20087;-69
2023/12/25 10:58:40;;;;;;;2.58;0.70;;;;;;;10.98;81.07;99489.78;4927998;29;20040;-68
2023/12/25 11:01:05;;;;;;;1.48;0.35;;;;;;;10.71;82.14;99486.69;4927523;29;20047;-69
2023/12/25 11:03:32;;;;;;;8.43;0.63;;;;;;;11.18;80.89;99480.91;4927503;29;20043;-69
2023/12/25 11:05:58;;;;;;;10.18;0.95;;;;;;;11.13;80.67;99485.94;4932018;29;20103;-68
2023/12/25 11:08:25;;;;;;;0.40;0.40;;;;;;;10.45;82.65;99485.13;4931547;29;20024;-69
2023/12/25 11:10:51;;;;;;;1.20;0.40;;;;;;;10.66;81.59;99474.41;4927430;29;20059;-68
2023/12/25 11:13:16;;;;;;;5.78;0.57;;;;;;;10.97;81.31;99488.25;4930338;29;20039;-69
2023/12/25 11:15:42;;;;;;;1.77;0.47;;;;;;;11.07;81.04;99488.22;4928326;29;20534;-68
2023/12/25 11:18:09;;;;;;;4.57;0.68;;;;;;;11.14;80.79;99482.84;4931600;29;20059;-69
2023/12/25 11:20:35;;;;;;;2.78;0.88;;;;;;;10.98;80.71;99485.16;4931798;29;20448;-69
2023/12/25 11:23:02;;;;;;;4.95;1.30;;;;;;;11.20;79.86;99491.31;4928852;29;20119;-68
2023/12/25 11:25:32;;;;;;;0.50;0.47;;;;;;;11.07;80.12;99492.88;4932914;29;20035;-68
2023/12/25 11:27:59;;;;;;;7.35;1.35;;;;;;;11.03;80.11;99495.56;4945761;28;20039;-69